createdAt,value
2022-11-25T00:01:37.080Z,3.95
2022-11-25T00:04:04.226Z,2.10
2022-11-25T00:06:33.727Z,2.00
2022-11-25T00:09:06.626Z,3.17
2022-11-25T00:11:39.592Z,4.28
2022-11-25T00:14:15.323Z,3.45
2022-11-25T00:16:46.727Z,5.30
2022-11-25T00:19:15.367Z,5.38
2022-11-25T00:21:42.867Z,4.07
2022-11-25T00:24:13.049Z,3.72
2022-11-25T00:26:39.850Z,5.65
2022-11-25T00:29:08.933Z,4.95
2022-11-25T00:31:38.517Z,3.90
2022-11-25T00:34:05.642Z,3.45
2022-11-25T00:36:35.043Z,5.90
2022-11-25T00:39:06.166Z,4.13
2022-11-25T00:41:51.896Z,3.25
2022-11-25T00:44:42.174Z,5.65
2022-11-25T00:47:20.947Z,5.25
2022-11-25T00:49:53.406Z,3.58
2022-11-25T00:52:25.736Z,4.72
2022-11-25T00:54:54.211Z,5.40
2022-11-25T00:57:24.731Z,3.85
2022-11-25T00:59:51.934Z,7.93
2022-11-25T01:02:19.367Z,3.33
2022-11-25T01:04:49.156Z,3.60
2022-11-25T01:07:16.620Z,6.00
2022-11-25T01:09:43.874Z,3.80
2022-11-25T01:12:10.598Z,4.40
2022-11-25T01:14:38.348Z,7.15
2022-11-25T01:17:05.848Z,4.72
2022-11-25T01:19:32.864Z,4.50
2022-11-25T01:22:00.208Z,4.20
2022-11-25T01:24:27.282Z,6.05
2022-11-25T01:26:55.966Z,4.93
2022-11-25T01:29:24.077Z,3.83
2022-11-25T01:31:51.547Z,4.85
2022-11-25T01:34:34.715Z,9.27
2022-11-25T01:37:09.646Z,5.50
2022-11-25T01:39:39.019Z,6.57
2022-11-25T01:42:11.857Z,3.15
2022-11-25T01:44:40.310Z,4.75
2022-11-25T01:47:07.432Z,4.05
2022-11-25T01:50:03.728Z,3.72
2022-11-25T01:52:35.058Z,3.17
2022-11-25T01:55:16.306Z,4.78
2022-11-25T01:57:48.839Z,3.85
2022-11-25T02:02:59.874Z,4.13
2022-11-25T02:05:38.447Z,2.30
2022-11-25T02:08:13.268Z,3.88
2022-11-25T02:10:42.505Z,4.25
2022-11-25T02:13:10.788Z,2.80
2022-11-25T02:15:37.625Z,3.97
2022-11-25T02:18:05.299Z,3.97
2022-11-25T02:20:32.614Z,3.05
2022-11-25T02:23:29.009Z,4.15
2022-11-25T02:25:55.969Z,3.03
2022-11-25T02:28:30.482Z,3.58
2022-11-25T02:30:58.954Z,3.85
2022-11-25T02:33:27.605Z,4.03
2022-11-25T02:36:01.226Z,3.75
2022-11-25T02:38:42.821Z,2.83
2022-11-25T02:41:24.003Z,4.70
2022-11-25T02:44:00.676Z,3.10
2022-11-25T02:46:29.970Z,3.08
2022-11-25T02:49:08.794Z,2.92
2022-11-25T02:51:37.085Z,2.35
2022-11-25T02:54:04.533Z,4.45
2022-11-25T02:56:34.164Z,5.65
2022-11-25T02:59:13.568Z,4.43
2022-11-25T03:01:40.926Z,2.97
2022-11-25T03:04:07.971Z,3.95
2022-11-25T03:06:35.408Z,3.20
2022-11-25T03:09:02.518Z,3.38
2022-11-25T03:11:48.515Z,7.95
2022-11-25T03:14:15.589Z,7.63
2022-11-25T03:16:45.698Z,4.93
2022-11-25T03:19:13.190Z,4.20
2022-11-25T03:21:39.977Z,2.15
2022-11-25T03:24:07.269Z,3.80
2022-11-25T03:26:35.008Z,3.67
2022-11-25T03:29:02.000Z,4.82
2022-11-25T03:31:29.166Z,6.30
2022-11-25T03:33:56.522Z,5.88
2022-11-25T03:36:23.375Z,7.65
2022-11-25T03:38:50.199Z,2.70
2022-11-25T03:41:17.529Z,2.75
2022-11-25T03:43:44.424Z,2.28
2022-11-25T03:46:11.284Z,1.98
2022-11-25T03:48:38.567Z,2.00
2022-11-25T03:51:05.474Z,4.10
2022-11-25T03:53:32.296Z,1.88
2022-11-25T03:55:59.534Z,2.28
2022-11-25T03:58:26.225Z,1.98
2022-11-25T04:00:55.499Z,2.10
2022-11-25T04:03:23.036Z,2.20
2022-11-25T04:05:49.887Z,2.92
2022-11-25T04:08:18.414Z,1.42
2022-11-25T04:10:45.838Z,1.92
2022-11-25T04:13:12.550Z,1.95
2022-11-25T04:15:45.951Z,1.98
2022-11-25T04:18:13.554Z,2.47
2022-11-25T04:20:40.616Z,1.55
2022-11-25T04:23:08.069Z,1.50
2022-11-25T04:25:36.280Z,2.53
2022-11-25T04:28:03.892Z,2.92
2022-11-25T04:30:31.065Z,1.58
2022-11-25T04:32:58.866Z,2.53
2022-11-25T04:35:25.807Z,4.68
2022-11-25T04:37:52.977Z,3.33
2022-11-25T04:40:20.000Z,2.60
2022-11-25T04:42:48.350Z,4.15
2022-11-25T04:45:24.092Z,2.30
2022-11-25T04:47:57.426Z,2.53
2022-11-25T04:50:34.475Z,5.43
2022-11-25T04:53:01.677Z,3.72
2022-11-25T04:55:28.584Z,5.95
2022-11-25T04:57:55.973Z,5.00
2022-11-25T05:00:23.211Z,4.47
2022-11-25T05:02:50.416Z,4.95
2022-11-25T05:05:17.469Z,3.35
2022-11-25T05:07:46.065Z,3.70
2022-11-25T05:10:13.312Z,3.85
2022-11-25T05:12:42.010Z,3.80
2022-11-25T05:15:09.747Z,3.38
2022-11-25T05:17:37.686Z,4.68
2022-11-25T05:20:14.571Z,3.08
2022-11-25T05:22:41.532Z,1.45
2022-11-25T05:25:09.083Z,2.00
2022-11-25T05:27:41.758Z,1.20
2022-11-25T05:30:12.237Z,3.92
2022-11-25T05:32:44.935Z,1.98
2022-11-25T05:35:21.207Z,1.95
2022-11-25T05:37:48.310Z,4.50
2022-11-25T05:40:16.430Z,4.47
2022-11-25T05:42:44.169Z,1.50
2022-11-25T05:45:11.919Z,3.50
2022-11-25T05:47:41.443Z,2.42
2022-11-25T05:58:41.106Z,5.90
2022-11-25T06:01:11.449Z,5.22
2022-11-25T06:03:57.904Z,6.85
2022-11-25T06:06:26.970Z,7.20
2022-11-25T06:09:00.416Z,4.15
2022-11-25T06:11:27.375Z,3.60
2022-11-25T06:16:44.563Z,2.85
2022-11-25T08:25:50.668Z,5.75
2022-11-25T08:28:17.977Z,1.40
2022-11-25T08:30:44.945Z,2.00
2022-11-25T08:35:56.199Z,1.40
2022-11-25T08:38:24.685Z,1.55
2022-11-25T08:40:53.289Z,1.98
2022-11-25T08:43:56.880Z,1.63
2022-11-25T08:49:27.132Z,2.30
2022-11-25T08:51:57.412Z,1.27
2022-11-25T08:54:30.841Z,1.55
2022-11-25T08:57:03.058Z,1.10
2022-11-25T08:59:31.150Z,1.63
2022-11-25T09:02:05.306Z,3.20
2022-11-25T09:05:13.795Z,1.73
2022-11-25T09:07:53.920Z,3.80
2022-11-25T09:10:37.711Z,1.20
2022-11-25T09:34:41.668Z,2.60
2022-11-25T09:37:44.574Z,2.05
2022-11-25T09:40:19.828Z,1.83
2022-11-25T09:43:51.785Z,1.60
2022-11-25T09:47:10.209Z,1.50
2022-11-25T09:50:06.563Z,2.42
2022-11-25T09:52:35.304Z,1.48
2022-11-25T09:55:18.232Z,2.17
2022-11-25T09:58:13.794Z,1.98
2022-11-25T10:06:12.049Z,1.23
2022-11-25T10:08:43.623Z,1.20
2022-11-25T10:11:53.200Z,3.40
2022-11-25T10:14:29.190Z,2.55
2022-11-25T10:17:18.904Z,1.92
2022-11-25T10:23:17.290Z,1.80
2022-11-25T10:25:51.996Z,1.50
2022-11-25T10:28:30.970Z,1.17
2022-11-25T10:32:01.078Z,2.47
2022-11-25T10:35:06.694Z,1.00
2022-11-25T10:37:53.469Z,1.73
2022-11-25T10:40:27.311Z,5.43
2022-11-25T10:47:12.152Z,2.08
2022-11-25T10:50:14.863Z,1.08
2022-11-25T10:52:57.478Z,1.80
2022-11-25T10:55:50.713Z,3.38
2022-11-25T10:58:29.597Z,3.63
2022-11-25T11:10:46.389Z,0.70
2022-11-25T11:13:36.759Z,2.00
2022-11-25T11:16:32.648Z,1.90
2022-11-25T11:22:01.172Z,1.23
2022-11-25T11:32:36.593Z,1.77
2022-11-25T11:44:57.348Z,2.13
2022-11-25T12:08:16.566Z,1.20
2022-11-25T12:11:46.107Z,3.20
2022-11-25T12:14:39.143Z,1.52
2022-11-25T12:22:14.056Z,2.67
2022-11-25T12:28:52.908Z,6.07
2022-11-25T12:31:27.976Z,3.03
2022-11-25T12:34:23.381Z,1.95
2022-11-25T12:37:50.703Z,5.72
2022-11-25T12:40:52.061Z,3.17
2022-11-25T12:47:51.885Z,2.28
2022-11-25T12:49:54.391Z,3.80
2022-11-25T12:52:42.710Z,7.57
2022-11-25T12:55:24.209Z,2.83
2022-11-25T12:58:42.139Z,4.55
2022-11-25T13:05:39.577Z,3.13
2022-11-25T13:09:00.550Z,3.30
2022-11-25T13:15:58.975Z,1.65
2022-11-25T13:18:16.501Z,1.42
2022-11-25T13:23:35.224Z,5.65
2022-11-25T13:26:30.464Z,4.55
2022-11-25T13:29:00.725Z,2.13
2022-11-25T13:34:39.978Z,1.45
2022-11-25T13:37:59.801Z,2.10
2022-11-25T13:40:33.569Z,3.65
2022-11-25T13:43:27.609Z,1.98
2022-11-25T13:46:15.430Z,3.08
2022-11-25T13:52:06.389Z,3.90
2022-11-25T14:01:09.524Z,2.63
2022-11-25T14:03:52.261Z,1.50
2022-11-25T14:07:05.617Z,2.50
2022-11-25T14:13:50.570Z,3.20
2022-11-25T14:17:31.049Z,2.97
2022-11-25T14:24:17.497Z,5.38
2022-11-25T14:30:15.108Z,5.10
2022-11-25T14:33:10.241Z,4.82
2022-11-25T14:52:43.092Z,4.03
2022-11-25T14:55:12.262Z,6.30
2022-11-25T14:58:58.546Z,6.25
2022-11-25T15:29:21.702Z,9.93
2022-11-25T15:31:52.584Z,14.00
2022-11-25T15:34:28.031Z,11.80
2022-11-25T15:36:55.037Z,13.07
2022-11-25T15:39:22.002Z,11.73
2022-11-25T15:42:26.920Z,18.58
2022-11-25T15:45:23.262Z,24.48
2022-11-25T15:47:51.642Z,20.45
2022-11-25T15:50:27.811Z,15.35
2022-11-25T15:52:58.454Z,15.40
2022-11-25T15:55:44.472Z,18.42
2022-11-25T15:58:20.839Z,11.25
2022-11-25T16:01:20.675Z,8.82
2022-11-25T16:03:55.604Z,8.18
2022-11-25T16:06:28.612Z,4.60
2022-11-25T16:08:58.412Z,5.90
2022-11-25T16:11:32.007Z,5.07
2022-11-25T16:14:37.112Z,7.70
2022-11-25T16:17:21.550Z,10.05
2022-11-25T16:19:52.331Z,9.85
2022-11-25T16:22:27.573Z,15.55
2022-11-25T16:25:02.156Z,22.95
2022-11-25T16:27:32.158Z,13.60
2022-11-25T16:30:06.543Z,10.93
2022-11-25T16:32:45.981Z,18.05
2022-11-25T16:35:20.370Z,20.00
2022-11-25T16:38:02.455Z,19.98
2022-11-25T16:40:42.800Z,20.75
2022-11-25T16:43:27.239Z,15.00
2022-11-25T16:45:55.768Z,16.95
2022-11-25T16:48:24.805Z,16.52
2022-11-25T16:51:12.323Z,24.73
2022-11-25T16:53:41.296Z,8.93
2022-11-25T16:56:18.992Z,11.85
2022-11-25T16:59:03.635Z,27.45
2022-11-25T17:01:34.157Z,29.83
2022-11-25T17:04:02.504Z,54.08
2022-11-25T17:06:34.971Z,56.33
2022-11-25T17:09:02.005Z,46.03
2022-11-25T17:11:51.076Z,31.50
2022-11-25T17:14:34.013Z,34.33
2022-11-25T17:17:02.001Z,34.75
2022-11-25T17:19:51.084Z,39.33
2022-11-25T17:22:20.793Z,52.30
2022-11-25T17:24:53.887Z,39.85
2022-11-25T17:28:06.187Z,38.40
2022-11-25T17:33:22.210Z,33.38
2022-11-25T17:35:49.399Z,37.45
2022-11-25T17:38:21.149Z,30.60
2022-11-25T17:40:48.607Z,34.55
2022-11-25T17:43:21.355Z,23.08
2022-11-25T17:45:50.972Z,25.17
2022-11-25T17:48:18.719Z,28.40
2022-11-25T17:53:40.212Z,21.50
2022-11-25T17:56:29.981Z,23.77
2022-11-25T17:59:01.860Z,28.08
2022-11-25T18:01:29.170Z,29.80
2022-11-25T18:03:56.201Z,35.58
2022-11-25T18:06:23.685Z,21.20
2022-11-25T18:08:50.716Z,18.83
2022-11-25T18:11:19.796Z,20.73
2022-11-25T18:13:48.594Z,15.73
2022-11-25T18:16:19.581Z,19.33
2022-11-25T18:18:46.972Z,15.82
2022-11-25T18:21:17.049Z,23.88
2022-11-25T18:23:52.616Z,41.65
2022-11-25T18:26:24.045Z,30.10
2022-11-25T18:28:51.383Z,35.35
2022-11-25T18:31:19.129Z,32.03
2022-11-25T18:33:46.360Z,38.92
2022-11-25T18:36:14.335Z,32.30
2022-11-25T18:38:41.303Z,36.70
2022-11-25T18:41:17.290Z,25.95
2022-11-25T18:43:44.188Z,30.23
2022-11-25T18:46:12.623Z,23.48
2022-11-25T18:48:41.004Z,30.85
2022-11-25T18:51:12.338Z,31.30
2022-11-25T18:53:39.081Z,29.20
2022-11-25T18:56:06.186Z,28.90
2022-11-25T18:58:33.239Z,25.98
2022-11-25T19:01:06.043Z,27.67
2022-11-25T19:06:15.548Z,25.20
2022-11-25T19:08:42.887Z,23.38
2022-11-25T19:11:19.735Z,29.13
2022-11-25T19:13:55.604Z,23.05
2022-11-25T19:16:26.273Z,20.50
2022-11-25T19:18:57.318Z,15.07
2022-11-25T19:21:24.664Z,20.83
2022-11-25T19:23:51.547Z,22.58
2022-11-25T19:26:24.622Z,22.23
2022-11-25T19:28:58.487Z,22.77
2022-11-25T19:31:45.375Z,24.50
2022-11-25T19:34:26.357Z,20.30
2022-11-25T19:36:54.401Z,18.50
2022-11-25T19:39:21.366Z,17.38
2022-11-25T19:41:48.714Z,17.40
2022-11-25T19:44:16.175Z,21.60
2022-11-25T19:47:14.344Z,14.18
2022-11-25T19:49:40.436Z,10.77
2022-11-25T19:52:18.648Z,11.98
2022-11-25T19:54:49.961Z,9.15
2022-11-25T19:57:21.233Z,13.32
2022-11-25T19:59:50.085Z,13.43
2022-11-25T20:02:20.915Z,16.45
2022-11-25T20:04:52.049Z,11.85
2022-11-25T20:07:20.809Z,12.38
2022-11-25T20:09:49.553Z,19.25
2022-11-25T20:12:21.799Z,20.27
2022-11-25T20:14:49.831Z,20.17
2022-11-25T20:17:25.229Z,20.00
2022-11-25T20:19:57.649Z,17.63
2022-11-25T20:22:33.681Z,17.15
2022-11-25T20:25:07.831Z,21.55
2022-11-25T20:27:35.551Z,29.52
2022-11-25T20:30:03.114Z,16.65
2022-11-25T20:32:48.545Z,8.93
2022-11-25T20:35:16.967Z,10.13
2022-11-25T20:38:00.952Z,10.98
2022-11-25T20:40:38.355Z,11.02
2022-11-25T20:43:07.264Z,10.65
2022-11-25T20:45:34.432Z,12.25
2022-11-25T20:48:02.154Z,12.23
2022-11-25T20:50:30.973Z,14.02
2022-11-25T20:53:00.932Z,14.52
2022-11-25T20:55:32.586Z,11.70
2022-11-25T20:58:00.331Z,11.52
2022-11-25T21:00:29.427Z,15.32
2022-11-25T21:02:59.045Z,19.38
2022-11-25T21:05:28.006Z,9.52
2022-11-25T21:07:55.760Z,5.43
2022-11-25T21:10:29.676Z,5.43
2022-11-25T21:13:03.581Z,6.70
2022-11-25T21:15:30.810Z,5.63
2022-11-25T21:18:00.412Z,5.20
2022-11-25T21:20:29.787Z,3.45
2022-11-25T21:23:08.891Z,4.28
2022-11-25T21:25:42.393Z,2.85
2022-11-25T21:28:17.903Z,4.75
2022-11-25T21:30:47.231Z,2.75
2022-11-25T21:33:15.241Z,4.63
2022-11-25T21:35:47.319Z,4.78
2022-11-25T21:38:39.065Z,7.07
2022-11-25T21:41:06.503Z,6.40
2022-11-25T21:43:34.256Z,2.45
2022-11-25T21:48:48.607Z,3.78
2022-11-25T21:51:26.556Z,3.92
2022-11-25T21:53:54.257Z,4.63
2022-11-25T21:56:24.110Z,3.17
2022-11-25T21:58:52.149Z,5.25
2022-11-25T22:01:23.988Z,2.20
2022-11-25T22:03:51.232Z,3.28
2022-11-25T22:09:13.093Z,2.72
2022-11-25T22:12:03.153Z,2.65
2022-11-25T22:14:52.767Z,3.08
2022-11-25T22:17:21.865Z,2.03
2022-11-25T22:19:52.944Z,3.67
2022-11-25T22:22:36.781Z,3.17
2022-11-25T22:25:11.991Z,3.58
2022-11-25T22:27:39.700Z,4.75
2022-11-25T22:30:07.483Z,3.08
2022-11-25T22:32:34.605Z,4.72
2022-11-25T22:35:02.038Z,6.22
2022-11-25T22:37:29.055Z,4.45
2022-11-25T22:39:55.976Z,3.95
2022-11-25T22:42:31.266Z,2.97
2022-11-25T22:45:00.692Z,4.13
2022-11-25T22:47:33.293Z,5.68
2022-11-25T22:50:02.696Z,4.68
2022-11-25T22:52:32.169Z,2.75
2022-11-25T22:55:03.158Z,3.15
2022-11-25T22:57:30.310Z,2.50
2022-11-25T22:59:57.036Z,3.30
2022-11-25T23:02:32.190Z,4.18
2022-11-25T23:05:02.273Z,4.15
2022-11-25T23:07:49.206Z,2.55
2022-11-25T23:10:20.263Z,3.22
2022-11-25T23:12:47.361Z,1.65
2022-11-25T23:15:16.399Z,5.22
2022-11-25T23:17:48.264Z,4.47
2022-11-25T23:20:22.436Z,3.17
2022-11-25T23:22:49.251Z,3.10
2022-11-25T23:25:19.177Z,2.40
2022-11-25T23:27:46.159Z,1.40
2022-11-25T23:30:18.507Z,3.90
2022-11-25T23:32:46.148Z,7.55
2022-11-25T23:35:16.559Z,12.80
2022-11-25T23:37:44.042Z,5.57
2022-11-25T23:40:19.156Z,5.47
2022-11-25T23:42:46.142Z,7.95
2022-11-25T23:45:18.613Z,4.18
2022-11-25T23:47:47.636Z,2.80
2022-11-25T23:50:27.022Z,4.90
2022-11-25T23:53:01.656Z,1.98
2022-11-25T23:55:35.271Z,4.25
2022-11-25T23:58:04.599Z,4.00
